Current | Forecast
Updated: 11:30 AM EEST on April 27, 2017
Observed at Odessa, Ukraine
Temperature 12°C
Humidity 67%
Dew Point 6°C
Wind SSE at 29 km/h
Pressure 1021 hPa (Steady)
Conditions Clear
Visibility -
UV N/A
Clouds
Yesterday's Maximum 11°C
Yesterday's Minimum 7°C approx.
Yesterday's Heating Degree Days 17 approx.
Sunrise5:44 AM EEST
Sunset7:57 PM EEST
Moon Rise6:40 AM EEST
Moon Set9:07 PM EEST
Moon PhaseMoon Phase
New Moon
Raw METARMETAR UKOO 270830Z 16008MPS CAVOK 12/06 Q1021 R16/090060 NOSIG


Monday
. High: 60° F.
Tuesday
. High: 66° F.
Wednesday
. High: 68° F.
Thursday
. High: 71° F.
Friday
. High: 66° F.
Saturday
. High: 60° F.
Sunday
. High: 64° F.
Monday
. High: 68° F.

Units: English | Metric

Find the Weather for any City, State or Zipcode, or Country:

U.S. State List | Severe Weather | Tropical Storms | Ski Conditions
United States | Canada | Central America | South America | Asia | Europe | Australia | Africa | Islands

Weather Underground

© Copyright 2017
The Weather Company, LLC